Etusivu
METAR-TAF:

METAR-TAF

Lentoasemat :

Chhatrapati Shivajin kansainvälinen lentoasema

Mumbai, Intia

Leveyspiiri: 19-07N, Pituuspiiri: 072-51E, korkeus merenpinnasta: 8 m

Tämänhetkinen sää

Tämä raportti tehtiin 21 minuuttia sitten, kello 16.30 UTC
Tuuli 6 kn lännestä/luoteesta
Lämpötila 30°C
Kosteus 79%
Ilmanpaine 1008 hPa
Näkyvyys: 4000 m
Hajanaisia pilviä 2000 ft:n korkeudessa
usvaa

METAR: VABB 211630Z 29006KT 4000 HZ SCT020 30/26 Q1008 NOSIG

Aika: 22:21 (16:51 UTC)

Sääennuste

Tämä raportti tehtiin 2 tuntia ja 51 minuuttia sitten, kello 14.00 UTC
Ennuste voimassa 21. päivästä klo 15 UTC - 21. päivään klo 24 UTC
Tuuli 8 kn pohjoisen/luoteesta
Näkyvyys: 4000 m
Muutamia pilviä 2000 ft:n korkeudessa
Hajanaisia pilviä 2500 ft:n korkeudessa
usvaa
Tulossa
21. päivästä klo 22 UTC - 21. päivään klo 24 UTC
Tuuli 3 kn eri suunnista
Näkyvyys: 3000 m
usvaa

TAF: VABB 211400Z 2115/2124 33008KT 4000 HZ FEW020 SCT025 BECMG 2122/2124 VRB03KT 3000 HZ

Säähavainnot ja -ennusteet yli 4000 lentoasemalta (METAR- ja TAF-raportit).

Käytössä olevat sääasemat on merkitty karttaan keltaisilla ja punaisilla pisteillä.

Aseta hiiri pisteen päälle nähdäksesi sääaseman nimen.

Klikkaa sitten nähdäksesi säähavainnot ja -ennusteet.

Kartan vaihtaminen: klikkaa mustalla rastilla varustettuja vihreitä pisteitä, niin voit zoomata sisään; viivalla varustettua vihreää pistettä, niin voit zoomata ulos tai vihreitä nuolia, niin pääset viereisille kartoille.


METAR-TAF: